sensor_id;sensor_type;location;lat;lon;timestamp;temperature;humidity
68257;DHT22;55069;51.568;4.656;2023-10-09T00:00:15;15.28;93.54
68257;DHT22;55069;51.568;4.656;2023-10-09T00:03:04;15.35;93.10
68257;DHT22;55069;51.568;4.656;2023-10-09T00:05:34;15.39;92.89
68257;DHT22;55069;51.568;4.656;2023-10-09T00:08:15;15.46;92.83
68257;DHT22;55069;51.568;4.656;2023-10-09T00:10:48;15.49;92.50
68257;DHT22;55069;51.568;4.656;2023-10-09T00:13:26;15.53;92.48
68257;DHT22;55069;51.568;4.656;2023-10-09T00:16:04;15.59;91.97
68257;DHT22;55069;51.568;4.656;2023-10-09T00:18:40;15.57;92.04
68257;DHT22;55069;51.568;4.656;2023-10-09T00:21:17;15.65;91.95
68257;DHT22;55069;51.568;4.656;2023-10-09T00:23:46;15.69;91.72
68257;DHT22;55069;51.568;4.656;2023-10-09T00:26:21;15.69;91.33
68257;DHT22;55069;51.568;4.656;2023-10-09T00:28:50;15.79;90.86
68257;DHT22;55069;51.568;4.656;2023-10-09T00:31:19;15.80;90.82
68257;DHT22;55069;51.568;4.656;2023-10-09T00:34:05;15.86;90.54
68257;DHT22;55069;51.568;4.656;2023-10-09T00:36:31;15.84;90.14
68257;DHT22;55069;51.568;4.656;2023-10-09T00:38:58;15.91;90.08
68257;DHT22;55069;51.568;4.656;2023-10-09T00:41:26;15.93;90.11
68257;DHT22;55069;51.568;4.656;2023-10-09T00:43:54;15.91;89.88
68257;DHT22;55069;51.568;4.656;2023-10-09T00:46:25;15.97;89.57
68257;DHT22;55069;51.568;4.656;2023-10-09T00:48:57;15.96;89.58
68257;DHT22;55069;51.568;4.656;2023-10-09T00:51:28;15.97;89.45
68257;DHT22;55069;51.568;4.656;2023-10-09T00:54:01;16.01;89.30
68257;DHT22;55069;51.568;4.656;2023-10-09T00:56:33;16.01;89.25
68257;DHT22;55069;51.568;4.656;2023-10-09T00:59:07;16.03;89.07
68257;DHT22;55069;51.568;4.656;2023-10-09T01:01:46;16.00;89.14
68257;DHT22;55069;51.568;4.656;2023-10-09T01:04:31;15.98;89.23
68257;DHT22;55069;51.568;4.656;2023-10-09T01:07:05;15.94;89.30
68257;DHT22;55069;51.568;4.656;2023-10-09T01:09:35;15.91;89.37
68257;DHT22;55069;51.568;4.656;2023-10-09T01:12:02;15.91;89.35
68257;DHT22;55069;51.568;4.656;2023-10-09T01:14:30;15.96;89.45
68257;DHT22;55069;51.568;4.656;2023-10-09T01:16:57;15.96;89.41
68257;DHT22;55069;51.568;4.656;2023-10-09T01:19:23;15.94;89.45
68257;DHT22;55069;51.568;4.656;2023-10-09T01:21:56;15.93;89.62
68257;DHT22;55069;51.568;4.656;2023-10-09T01:24:30;15.90;89.70
68257;DHT22;55069;51.568;4.656;2023-10-09T01:27:04;15.89;89.61
68257;DHT22;55069;51.568;4.656;2023-10-09T01:29:36;15.87;89.80
68257;DHT22;55069;51.568;4.656;2023-10-09T01:32:02;15.87;89.70
68257;DHT22;55069;51.568;4.656;2023-10-09T01:34:32;15.90;89.77
68257;DHT22;55069;51.568;4.656;2023-10-09T01:39:53;15.87;89.85
68257;DHT22;55069;51.568;4.656;2023-10-09T01:42:20;15.87;89.75
68257;DHT22;55069;51.568;4.656;2023-10-09T01:44:55;15.84;89.95
68257;DHT22;55069;51.568;4.656;2023-10-09T01:47:23;15.83;89.95
68257;DHT22;55069;51.568;4.656;2023-10-09T01:49:51;15.84;89.99
68257;DHT22;55069;51.568;4.656;2023-10-09T01:52:19;15.86;89.89
68257;DHT22;55069;51.568;4.656;2023-10-09T01:54:47;15.82;90.11
68257;DHT22;55069;51.568;4.656;2023-10-09T01:57:15;15.80;90.08
68257;DHT22;55069;51.568;4.656;2023-10-09T01:59:42;15.80;90.03
68257;DHT22;55069;51.568;4.656;2023-10-09T02:02:21;15.80;90.16
68257;DHT22;55069;51.568;4.656;2023-10-09T02:05:03;15.80;90.08
68257;DHT22;55069;51.568;4.656;2023-10-09T02:07:35;15.79;90.24
68257;DHT22;55069;51.568;4.656;2023-10-09T02:10:13;15.83;90.16
68257;DHT22;55069;51.568;4.656;2023-10-09T02:13:11;15.79;90.19
68257;DHT22;55069;51.568;4.656;2023-10-09T02:15:39;15.77;90.35
68257;DHT22;55069;51.568;4.656;2023-10-09T02:18:12;15.74;90.55
68257;DHT22;55069;51.568;4.656;2023-10-09T02:23:26;15.73;90.46
68257;DHT22;55069;51.568;4.656;2023-10-09T02:26:04;15.74;90.56
68257;DHT22;55069;51.568;4.656;2023-10-09T02:28:32;15.77;90.74
68257;DHT22;55069;51.568;4.656;2023-10-09T02:31:01;15.77;90.65
68257;DHT22;55069;51.568;4.656;2023-10-09T02:33:48;15.83;90.87
68257;DHT22;55069;51.568;4.656;2023-10-09T02:36:16;15.80;90.88
68257;DHT22;55069;51.568;4.656;2023-10-09T02:38:41;15.80;91.03
68257;DHT22;55069;51.568;4.656;2023-10-09T02:41:08;15.80;91.18
68257;DHT22;55069;51.568;4.656;2023-10-09T02:43:39;15.80;91.05
68257;DHT22;55069;51.568;4.656;2023-10-09T02:46:30;15.80;91.46
68257;DHT22;55069;51.568;4.656;2023-10-09T02:48:56;15.74;91.54
68257;DHT22;55069;51.568;4.656;2023-10-09T02:51:27;15.70;91.62
68257;DHT22;55069;51.568;4.656;2023-10-09T02:56:20;15.66;91.90
68257;DHT22;55069;51.568;4.656;2023-10-09T02:58:53;15.67;91.85
68257;DHT22;55069;51.568;4.656;2023-10-09T03:01:19;15.62;91.80
68257;DHT22;55069;51.568;4.656;2023-10-09T03:03:45;15.56;91.67
68257;DHT22;55069;51.568;4.656;2023-10-09T03:06:15;15.56;91.96
68257;DHT22;55069;51.568;4.656;2023-10-09T03:08:48;15.53;92.45
68257;DHT22;55069;51.568;4.656;2023-10-09T03:11:14;15.52;92.87
68257;DHT22;55069;51.568;4.656;2023-10-09T03:13:43;15.46;92.82
68257;DHT22;55069;51.568;4.656;2023-10-09T03:16:11;15.46;92.75
68257;DHT22;55069;51.568;4.656;2023-10-09T03:18:54;15.45;92.89
68257;DHT22;55069;51.568;4.656;2023-10-09T03:21:20;15.39;92.78
68257;DHT22;55069;51.568;4.656;2023-10-09T03:23:49;15.40;92.54
68257;DHT22;55069;51.568;4.656;2023-10-09T03:26:19;15.43;92.83
68257;DHT22;55069;51.568;4.656;2023-10-09T03:28:46;15.35;92.63
68257;DHT22;55069;51.568;4.656;2023-10-09T03:31:12;15.39;92.86
68257;DHT22;55069;51.568;4.656;2023-10-09T03:33:38;15.38;93.02
68257;DHT22;55069;51.568;4.656;2023-10-09T03:36:04;15.42;93.34
68257;DHT22;55069;51.568;4.656;2023-10-09T03:38:38;15.50;93.22
68257;DHT22;55069;51.568;4.656;2023-10-09T03:41:05;15.48;93.16
68257;DHT22;55069;51.568;4.656;2023-10-09T03:43:34;15.55;93.27
68257;DHT22;55069;51.568;4.656;2023-10-09T03:46:14;15.57;93.08
68257;DHT22;55069;51.568;4.656;2023-10-09T03:48:58;15.59;92.81
68257;DHT22;55069;51.568;4.656;2023-10-09T03:51:27;15.57;92.79
68257;DHT22;55069;51.568;4.656;2023-10-09T03:53:53;15.56;92.66
68257;DHT22;55069;51.568;4.656;2023-10-09T03:56:19;15.60;92.92
68257;DHT22;55069;51.568;4.656;2023-10-09T03:58:51;15.65;92.91
68257;DHT22;55069;51.568;4.656;2023-10-09T04:01:21;15.71;92.47
68257;DHT22;55069;51.568;4.656;2023-10-09T04:03:47;15.67;92.77
68257;DHT22;55069;51.568;4.656;2023-10-09T04:06:12;15.69;92.56
68257;DHT22;55069;51.568;4.656;2023-10-09T04:08:38;15.71;92.56
68257;DHT22;55069;51.568;4.656;2023-10-09T04:11:09;15.70;92.61
68257;DHT22;55069;51.568;4.656;2023-10-09T04:13:44;15.69;92.79
68257;DHT22;55069;51.568;4.656;2023-10-09T04:16:14;15.63;92.85
68257;DHT22;55069;51.568;4.656;2023-10-09T04:18:58;15.66;93.12
68257;DHT22;55069;51.568;4.656;2023-10-09T04:21:37;15.70;93.04
68257;DHT22;55069;51.568;4.656;2023-10-09T04:24:07;15.71;93.03
68257;DHT22;55069;51.568;4.656;2023-10-09T04:26:39;15.71;92.95
68257;DHT22;55069;51.568;4.656;2023-10-09T04:29:13;15.77;92.83
68257;DHT22;55069;51.568;4.656;2023-10-09T04:31:57;15.84;92.84
68257;DHT22;55069;51.568;4.656;2023-10-09T04:34:27;15.80;92.90
68257;DHT22;55069;51.568;4.656;2023-10-09T04:37:13;15.74;93.01
68257;DHT22;55069;51.568;4.656;2023-10-09T04:39:39;15.71;93.14
68257;DHT22;55069;51.568;4.656;2023-10-09T04:42:12;15.70;93.27
68257;DHT22;55069;51.568;4.656;2023-10-09T04:44:50;15.69;93.34
68257;DHT22;55069;51.568;4.656;2023-10-09T04:47:39;15.69;93.34
68257;DHT22;55069;51.568;4.656;2023-10-09T04:50:15;15.71;93.27
68257;DHT22;55069;51.568;4.656;2023-10-09T04:52:44;15.74;93.50
68257;DHT22;55069;51.568;4.656;2023-10-09T04:55:10;15.69;93.39
68257;DHT22;55069;51.568;4.656;2023-10-09T04:57:40;15.65;93.37
68257;DHT22;55069;51.568;4.656;2023-10-09T05:00:14;15.69;93.62
68257;DHT22;55069;51.568;4.656;2023-10-09T05:02:56;15.69;93.57
68257;DHT22;55069;51.568;4.656;2023-10-09T05:05:27;15.65;93.66
68257;DHT22;55069;51.568;4.656;2023-10-09T05:08:12;15.66;93.56
68257;DHT22;55069;51.568;4.656;2023-10-09T05:10:48;15.67;93.71
68257;DHT22;55069;51.568;4.656;2023-10-09T05:13:29;15.71;93.84
68257;DHT22;55069;51.568;4.656;2023-10-09T05:16:10;15.74;93.71
68257;DHT22;55069;51.568;4.656;2023-10-09T05:18:41;15.77;93.66
68257;DHT22;55069;51.568;4.656;2023-10-09T05:21:07;15.79;93.67
68257;DHT22;55069;51.568;4.656;2023-10-09T05:23:39;15.80;93.53
68257;DHT22;55069;51.568;4.656;2023-10-09T05:26:14;15.82;93.62
68257;DHT22;55069;51.568;4.656;2023-10-09T05:28:59;15.79;93.76
68257;DHT22;55069;51.568;4.656;2023-10-09T05:31:24;15.84;93.71
68257;DHT22;55069;51.568;4.656;2023-10-09T05:34:08;15.84;93.63
68257;DHT22;55069;51.568;4.656;2023-10-09T05:36:33;15.83;93.55
68257;DHT22;55069;51.568;4.656;2023-10-09T05:39:01;15.83;93.69
68257;DHT22;55069;51.568;4.656;2023-10-09T05:42:02;15.90;93.63
68257;DHT22;55069;51.568;4.656;2023-10-09T05:44:35;15.89;93.60
68257;DHT22;55069;51.568;4.656;2023-10-09T05:47:19;15.87;93.51
68257;DHT22;55069;51.568;4.656;2023-10-09T05:49:57;15.89;93.62
68257;DHT22;55069;51.568;4.656;2023-10-09T05:52:34;15.91;93.56
68257;DHT22;55069;51.568;4.656;2023-10-09T05:55:04;15.86;93.75
68257;DHT22;55069;51.568;4.656;2023-10-09T05:57:48;15.83;93.79
68257;DHT22;55069;51.568;4.656;2023-10-09T06:00:32;15.79;93.72
68257;DHT22;55069;51.568;4.656;2023-10-09T06:03:16;15.79;93.92
68257;DHT22;55069;51.568;4.656;2023-10-09T06:05:48;15.82;93.95
68257;DHT22;55069;51.568;4.656;2023-10-09T06:08:29;15.76;93.56
68257;DHT22;55069;51.568;4.656;2023-10-09T06:11:11;15.80;94.07
68257;DHT22;55069;51.568;4.656;2023-10-09T06:13:57;15.89;93.97
68257;DHT22;55069;51.568;4.656;2023-10-09T06:16:29;15.89;93.92
68257;DHT22;55069;51.568;4.656;2023-10-09T06:19:14;15.90;93.84
68257;DHT22;55069;51.568;4.656;2023-10-09T06:22:00;15.89;93.91
68257;DHT22;55069;51.568;4.656;2023-10-09T06:24:38;15.90;93.83
68257;DHT22;55069;51.568;4.656;2023-10-09T06:27:20;15.91;93.82
68257;DHT22;55069;51.568;4.656;2023-10-09T06:30:12;15.97;93.75
68257;DHT22;55069;51.568;4.656;2023-10-09T06:32:37;15.97;93.64
68257;DHT22;55069;51.568;4.656;2023-10-09T06:35:03;15.98;93.66
68257;DHT22;55069;51.568;4.656;2023-10-09T06:37:43;16.03;93.41
68257;DHT22;55069;51.568;4.656;2023-10-09T06:40:37;16.07;93.40
68257;DHT22;55069;51.568;4.656;2023-10-09T06:43:03;16.07;93.31
68257;DHT22;55069;51.568;4.656;2023-10-09T06:45:50;16.05;93.28
68257;DHT22;55069;51.568;4.656;2023-10-09T06:48:34;16.13;93.20
68257;DHT22;55069;51.568;4.656;2023-10-09T06:51:09;16.07;92.90
68257;DHT22;55069;51.568;4.656;2023-10-09T06:54:00;16.11;92.63
68257;DHT22;55069;51.568;4.656;2023-10-09T06:56:31;16.13;92.46
68257;DHT22;55069;51.568;4.656;2023-10-09T06:58:57;16.11;92.27
68257;DHT22;55069;51.568;4.656;2023-10-09T07:01:24;16.13;92.02
68257;DHT22;55069;51.568;4.656;2023-10-09T07:04:06;16.21;92.01
68257;DHT22;55069;51.568;4.656;2023-10-09T07:06:45;16.31;92.03
68257;DHT22;55069;51.568;4.656;2023-10-09T07:09:12;16.29;91.95
68257;DHT22;55069;51.568;4.656;2023-10-09T07:11:42;16.29;91.59
68257;DHT22;55069;51.568;4.656;2023-10-09T07:14:14;16.28;92.03
68257;DHT22;55069;51.568;4.656;2023-10-09T07:16:59;16.31;91.85
68257;DHT22;55069;51.568;4.656;2023-10-09T07:19:32;16.29;91.97
68257;DHT22;55069;51.568;4.656;2023-10-09T07:22:23;16.28;92.06
68257;DHT22;55069;51.568;4.656;2023-10-09T07:24:56;16.35;92.01
68257;DHT22;55069;51.568;4.656;2023-10-09T07:27:29;16.40;91.86
68257;DHT22;55069;51.568;4.656;2023-10-09T07:30:13;16.40;91.81
68257;DHT22;55069;51.568;4.656;2023-10-09T07:33:04;16.40;91.67
68257;DHT22;55069;51.568;4.656;2023-10-09T07:35:38;16.45;91.69
68257;DHT22;55069;51.568;4.656;2023-10-09T07:38:10;16.51;91.65
68257;DHT22;55069;51.568;4.656;2023-10-09T07:40:39;16.58;91.41
68257;DHT22;55069;51.568;4.656;2023-10-09T07:43:23;16.63;91.18
68257;DHT22;55069;51.568;4.656;2023-10-09T07:45:53;16.72;90.95
68257;DHT22;55069;51.568;4.656;2023-10-09T07:48:39;16.76;90.79
68257;DHT22;55069;51.568;4.656;2023-10-09T07:51:14;16.91;90.32
68257;DHT22;55069;51.568;4.656;2023-10-09T07:53:40;16.93;90.44
68257;DHT22;55069;51.568;4.656;2023-10-09T07:56:10;16.99;90.41
68257;DHT22;55069;51.568;4.656;2023-10-09T07:58:39;16.99;90.09
68257;DHT22;55069;51.568;4.656;2023-10-09T08:01:12;17.10;90.25
68257;DHT22;55069;51.568;4.656;2023-10-09T08:03:56;17.11;90.22
68257;DHT22;55069;51.568;4.656;2023-10-09T08:06:27;17.09;90.10
68257;DHT22;55069;51.568;4.656;2023-10-09T08:09:09;17.02;90.13
68257;DHT22;55069;51.568;4.656;2023-10-09T08:11:42;17.07;90.13
68257;DHT22;55069;51.568;4.656;2023-10-09T08:14:11;17.14;90.10
68257;DHT22;55069;51.568;4.656;2023-10-09T08:16:46;17.18;89.90
68257;DHT22;55069;51.568;4.656;2023-10-09T08:19:11;17.18;89.69
68257;DHT22;55069;51.568;4.656;2023-10-09T08:21:55;17.27;89.65
68257;DHT22;55069;51.568;4.656;2023-10-09T08:24:53;17.41;89.46
68257;DHT22;55069;51.568;4.656;2023-10-09T08:27:27;17.52;89.03
68257;DHT22;55069;51.568;4.656;2023-10-09T08:29:59;17.68;88.73
68257;DHT22;55069;51.568;4.656;2023-10-09T08:32:57;17.79;88.42
68257;DHT22;55069;51.568;4.656;2023-10-09T08:35:29;17.90;88.29
68257;DHT22;55069;51.568;4.656;2023-10-09T08:37:59;17.95;88.12
68257;DHT22;55069;51.568;4.656;2023-10-09T08:40:32;18.00;87.51
68257;DHT22;55069;51.568;4.656;2023-10-09T08:45:43;18.10;87.08
68257;DHT22;55069;51.568;4.656;2023-10-09T08:48:10;18.23;87.06
68257;DHT22;55069;51.568;4.656;2023-10-09T08:50:41;18.36;86.56
68257;DHT22;55069;51.568;4.656;2023-10-09T08:53:13;18.34;86.28
68257;DHT22;55069;51.568;4.656;2023-10-09T08:55:40;18.36;86.18
68257;DHT22;55069;51.568;4.656;2023-10-09T08:58:06;18.45;85.64
68257;DHT22;55069;51.568;4.656;2023-10-09T09:00:44;18.51;85.62
68257;DHT22;55069;51.568;4.656;2023-10-09T09:03:14;18.58;85.22
68257;DHT22;55069;51.568;4.656;2023-10-09T09:06:01;18.71;84.91
68257;DHT22;55069;51.568;4.656;2023-10-09T09:08:31;18.64;84.83
68257;DHT22;55069;51.568;4.656;2023-10-09T09:13:45;18.75;84.32
68257;DHT22;55069;51.568;4.656;2023-10-09T09:16:17;18.84;84.21
68257;DHT22;55069;51.568;4.656;2023-10-09T09:18:57;18.78;84.24
68257;DHT22;55069;51.568;4.656;2023-10-09T09:21:29;18.95;84.05
68257;DHT22;55069;51.568;4.656;2023-10-09T09:23:59;19.10;83.49
68257;DHT22;55069;51.568;4.656;2023-10-09T09:26:34;19.12;83.09
68257;DHT22;55069;51.568;4.656;2023-10-09T09:29:03;19.00;83.16
68257;DHT22;55069;51.568;4.656;2023-10-09T09:31:32;19.08;82.83
68257;DHT22;55069;51.568;4.656;2023-10-09T09:34:07;19.19;82.93
68257;DHT22;55069;51.568;4.656;2023-10-09T09:36:58;19.09;82.83
68257;DHT22;55069;51.568;4.656;2023-10-09T09:39:27;19.16;82.63
68257;DHT22;55069;51.568;4.656;2023-10-09T09:41:58;19.23;82.30
68257;DHT22;55069;51.568;4.656;2023-10-09T09:44:36;19.31;82.51
68257;DHT22;55069;51.568;4.656;2023-10-09T09:47:12;19.29;81.99
68257;DHT22;55069;51.568;4.656;2023-10-09T09:49:42;19.33;82.24
68257;DHT22;55069;51.568;4.656;2023-10-09T09:52:09;19.36;82.47
68257;DHT22;55069;51.568;4.656;2023-10-09T09:54:38;19.41;82.39
68257;DHT22;55069;51.568;4.656;2023-10-09T09:57:05;19.29;82.38
68257;DHT22;55069;51.568;4.656;2023-10-09T09:59:40;19.23;82.73
68257;DHT22;55069;51.568;4.656;2023-10-09T10:02:07;19.23;82.90
68257;DHT22;55069;51.568;4.656;2023-10-09T10:04:38;19.27;83.11
68257;DHT22;55069;51.568;4.656;2023-10-09T10:07:06;19.36;82.91
68257;DHT22;55069;51.568;4.656;2023-10-09T10:12:04;19.50;82.70
68257;DHT22;55069;51.568;4.656;2023-10-09T10:14:53;19.54;82.43
68257;DHT22;55069;51.568;4.656;2023-10-09T10:17:22;19.61;82.30
68257;DHT22;55069;51.568;4.656;2023-10-09T10:22:28;19.46;82.93
68257;DHT22;55069;51.568;4.656;2023-10-09T10:24:55;19.47;82.35
68257;DHT22;55069;51.568;4.656;2023-10-09T10:27:25;19.45;82.94
68257;DHT22;55069;51.568;4.656;2023-10-09T10:32:57;19.86;82.06
68257;DHT22;55069;51.568;4.656;2023-10-09T10:35:42;19.78;81.44
68257;DHT22;55069;51.568;4.656;2023-10-09T10:38:33;19.79;81.75
68257;DHT22;55069;51.568;4.656;2023-10-09T10:41:16;19.89;81.44
68257;DHT22;55069;51.568;4.656;2023-10-09T10:43:43;20.06;81.71
68257;DHT22;55069;51.568;4.656;2023-10-09T10:46:15;20.12;80.84
68257;DHT22;55069;51.568;4.656;2023-10-09T10:49:09;20.16;81.03
68257;DHT22;55069;51.568;4.656;2023-10-09T10:51:55;20.19;80.64
68257;DHT22;55069;51.568;4.656;2023-10-09T10:54:28;20.28;80.59
68257;DHT22;55069;51.568;4.656;2023-10-09T10:57:18;20.22;80.14
68257;DHT22;55069;51.568;4.656;2023-10-09T10:59:58;20.09;80.02
68257;DHT22;55069;51.568;4.656;2023-10-09T11:02:43;20.15;79.86
68257;DHT22;55069;51.568;4.656;2023-10-09T11:05:09;20.11;80.56
68257;DHT22;55069;51.568;4.656;2023-10-09T11:07:49;20.18;79.94
68257;DHT22;55069;51.568;4.656;2023-10-09T11:10:22;20.12;79.86
68257;DHT22;55069;51.568;4.656;2023-10-09T11:12:57;20.29;79.14
68257;DHT22;55069;51.568;4.656;2023-10-09T11:15:36;20.25;79.47
68257;DHT22;55069;51.568;4.656;2023-10-09T11:18:15;20.33;78.79
68257;DHT22;55069;51.568;4.656;2023-10-09T11:20:59;20.50;79.74
68257;DHT22;55069;51.568;4.656;2023-10-09T11:23:29;20.56;78.84
68257;DHT22;55069;51.568;4.656;2023-10-09T11:26:05;20.46;78.19
68257;DHT22;55069;51.568;4.656;2023-10-09T11:29:04;20.47;78.34
68257;DHT22;55069;51.568;4.656;2023-10-09T11:31:39;20.57;78.08
68257;DHT22;55069;51.568;4.656;2023-10-09T11:34:18;20.77;77.92
68257;DHT22;55069;51.568;4.656;2023-10-09T11:37:01;20.73;77.61
68257;DHT22;55069;51.568;4.656;2023-10-09T11:39:30;20.69;77.19
68257;DHT22;55069;51.568;4.656;2023-10-09T11:42:06;20.83;77.10
68257;DHT22;55069;51.568;4.656;2023-10-09T11:44:37;20.80;77.06
68257;DHT22;55069;51.568;4.656;2023-10-09T11:47:05;20.76;77.09
68257;DHT22;55069;51.568;4.656;2023-10-09T11:49:54;21.00;76.73
68257;DHT22;55069;51.568;4.656;2023-10-09T11:52:29;21.04;76.25
68257;DHT22;55069;51.568;4.656;2023-10-09T11:55:04;20.98;76.20
68257;DHT22;55069;51.568;4.656;2023-10-09T11:57:40;20.94;76.54
68257;DHT22;55069;51.568;4.656;2023-10-09T12:00:07;20.92;76.21
68257;DHT22;55069;51.568;4.656;2023-10-09T12:02:55;20.79;76.37
68257;DHT22;55069;51.568;4.656;2023-10-09T12:05:21;20.91;77.02
68257;DHT22;55069;51.568;4.656;2023-10-09T12:07:48;20.88;76.55
68257;DHT22;55069;51.568;4.656;2023-10-09T12:10:22;20.91;75.78
68257;DHT22;55069;51.568;4.656;2023-10-09T12:12:54;21.04;75.79
68257;DHT22;55069;51.568;4.656;2023-10-09T12:15:24;20.92;75.25
68257;DHT22;55069;51.568;4.656;2023-10-09T12:17:50;20.90;76.35
68257;DHT22;55069;51.568;4.656;2023-10-09T12:20:19;20.94;75.84
68257;DHT22;55069;51.568;4.656;2023-10-09T12:22:59;20.94;75.19
68257;DHT22;55069;51.568;4.656;2023-10-09T12:25:26;20.92;75.76
68257;DHT22;55069;51.568;4.656;2023-10-09T12:27:52;20.88;75.42
68257;DHT22;55069;51.568;4.656;2023-10-09T12:30:23;21.01;74.72
68257;DHT22;55069;51.568;4.656;2023-10-09T12:32:53;20.95;74.68
68257;DHT22;55069;51.568;4.656;2023-10-09T12:35:20;20.91;74.21
68257;DHT22;55069;51.568;4.656;2023-10-09T12:37:45;21.09;74.33
68257;DHT22;55069;51.568;4.656;2023-10-09T12:40:12;21.04;73.87
68257;DHT22;55069;51.568;4.656;2023-10-09T12:42:37;21.21;73.17
68257;DHT22;55069;51.568;4.656;2023-10-09T12:45:03;21.32;73.33
68257;DHT22;55069;51.568;4.656;2023-10-09T12:47:34;21.39;72.98
68257;DHT22;55069;51.568;4.656;2023-10-09T12:50:06;21.59;73.69
68257;DHT22;55069;51.568;4.656;2023-10-09T12:52:39;21.53;72.59
68257;DHT22;55069;51.568;4.656;2023-10-09T12:55:05;21.53;73.34
68257;DHT22;55069;51.568;4.656;2023-10-09T12:57:33;21.66;72.66
68257;DHT22;55069;51.568;4.656;2023-10-09T12:59:59;21.72;72.30
68257;DHT22;55069;51.568;4.656;2023-10-09T13:02:24;21.57;72.18
68257;DHT22;55069;51.568;4.656;2023-10-09T13:04:59;21.73;71.62
68257;DHT22;55069;51.568;4.656;2023-10-09T13:07:25;21.52;72.08
68257;DHT22;55069;51.568;4.656;2023-10-09T13:09:51;21.50;72.37
68257;DHT22;55069;51.568;4.656;2023-10-09T13:12:37;21.65;71.91
68257;DHT22;55069;51.568;4.656;2023-10-09T13:15:09;21.66;71.87
68257;DHT22;55069;51.568;4.656;2023-10-09T13:17:36;21.55;71.06
68257;DHT22;55069;51.568;4.656;2023-10-09T13:20:02;21.72;71.74
68257;DHT22;55069;51.568;4.656;2023-10-09T13:22:43;21.72;70.65
68257;DHT22;55069;51.568;4.656;2023-10-09T13:25:11;21.72;70.66
68257;DHT22;55069;51.568;4.656;2023-10-09T13:27:50;21.72;71.02
68257;DHT22;55069;51.568;4.656;2023-10-09T13:30:19;21.77;71.03
68257;DHT22;55069;51.568;4.656;2023-10-09T13:32:49;21.67;70.61
68257;DHT22;55069;51.568;4.656;2023-10-09T13:35:19;21.84;71.77
68257;DHT22;55069;51.568;4.656;2023-10-09T13:37:45;21.94;71.13
68257;DHT22;55069;51.568;4.656;2023-10-09T13:40:22;21.59;71.75
68257;DHT22;55069;51.568;4.656;2023-10-09T13:42:55;21.52;71.72
68257;DHT22;55069;51.568;4.656;2023-10-09T13:45:27;21.60;71.34
68257;DHT22;55069;51.568;4.656;2023-10-09T13:47:56;21.50;71.35
68257;DHT22;55069;51.568;4.656;2023-10-09T13:50:25;21.34;71.85
68257;DHT22;55069;51.568;4.656;2023-10-09T13:52:57;21.27;72.07
68257;DHT22;55069;51.568;4.656;2023-10-09T13:55:23;21.24;72.81
68257;DHT22;55069;51.568;4.656;2023-10-09T13:57:57;21.31;73.16
68257;DHT22;55069;51.568;4.656;2023-10-09T14:00:23;21.41;73.36
68257;DHT22;55069;51.568;4.656;2023-10-09T14:03:00;21.46;73.15
68257;DHT22;55069;51.568;4.656;2023-10-09T14:05:37;21.12;73.66
68257;DHT22;55069;51.568;4.656;2023-10-09T14:08:10;21.21;73.46
68257;DHT22;55069;51.568;4.656;2023-10-09T14:10:37;21.09;73.23
68257;DHT22;55069;51.568;4.656;2023-10-09T14:13:04;21.04;72.96
68257;DHT22;55069;51.568;4.656;2023-10-09T14:15:37;21.07;72.57
68257;DHT22;55069;51.568;4.656;2023-10-09T14:18:07;21.09;72.63
68257;DHT22;55069;51.568;4.656;2023-10-09T14:20:34;21.00;73.01
68257;DHT22;55069;51.568;4.656;2023-10-09T14:23:01;20.92;73.08
68257;DHT22;55069;51.568;4.656;2023-10-09T14:25:33;20.87;73.49
68257;DHT22;55069;51.568;4.656;2023-10-09T14:28:04;20.83;73.98
68257;DHT22;55069;51.568;4.656;2023-10-09T14:30:34;20.88;73.80
68257;DHT22;55069;51.568;4.656;2023-10-09T14:33:16;20.94;73.45
68257;DHT22;55069;51.568;4.656;2023-10-09T14:35:48;20.91;73.33
68257;DHT22;55069;51.568;4.656;2023-10-09T14:38:14;20.85;74.02
68257;DHT22;55069;51.568;4.656;2023-10-09T14:40:45;20.87;74.23
68257;DHT22;55069;51.568;4.656;2023-10-09T14:43:11;20.95;74.26
68257;DHT22;55069;51.568;4.656;2023-10-09T14:45:47;21.27;73.23
68257;DHT22;55069;51.568;4.656;2023-10-09T14:48:19;21.29;73.32
68257;DHT22;55069;51.568;4.656;2023-10-09T14:50:52;21.29;72.59
68257;DHT22;55069;51.568;4.656;2023-10-09T14:53:19;21.05;73.70
68257;DHT22;55069;51.568;4.656;2023-10-09T14:55:45;20.91;73.43
68257;DHT22;55069;51.568;4.656;2023-10-09T14:58:13;20.81;74.10
68257;DHT22;55069;51.568;4.656;2023-10-09T15:00:39;20.74;74.07
68257;DHT22;55069;51.568;4.656;2023-10-09T15:03:14;20.61;74.78
68257;DHT22;55069;51.568;4.656;2023-10-09T15:05:41;20.66;75.06
68257;DHT22;55069;51.568;4.656;2023-10-09T15:08:07;20.66;75.52
68257;DHT22;55069;51.568;4.656;2023-10-09T15:10:49;20.64;75.25
68257;DHT22;55069;51.568;4.656;2023-10-09T15:13:17;20.71;75.64
68257;DHT22;55069;51.568;4.656;2023-10-09T15:15:43;20.76;75.33
68257;DHT22;55069;51.568;4.656;2023-10-09T15:18:10;20.57;75.63
68257;DHT22;55069;51.568;4.656;2023-10-09T15:20:38;20.61;75.88
68257;DHT22;55069;51.568;4.656;2023-10-09T15:23:05;20.69;76.37
68257;DHT22;55069;51.568;4.656;2023-10-09T15:25:31;20.57;76.32
68257;DHT22;55069;51.568;4.656;2023-10-09T15:27:56;20.52;76.21
68257;DHT22;55069;51.568;4.656;2023-10-09T15:30:23;20.54;76.26
68257;DHT22;55069;51.568;4.656;2023-10-09T15:32:48;20.59;76.28
68257;DHT22;55069;51.568;4.656;2023-10-09T15:35:14;20.59;76.53
68257;DHT22;55069;51.568;4.656;2023-10-09T15:37:43;20.54;76.29
68257;DHT22;55069;51.568;4.656;2023-10-09T15:40:08;20.39;76.51
68257;DHT22;55069;51.568;4.656;2023-10-09T15:42:42;20.39;76.65
68257;DHT22;55069;51.568;4.656;2023-10-09T15:45:08;20.49;76.66
68257;DHT22;55069;51.568;4.656;2023-10-09T15:47:34;20.40;77.22
68257;DHT22;55069;51.568;4.656;2023-10-09T15:50:05;20.44;77.18
68257;DHT22;55069;51.568;4.656;2023-10-09T15:52:34;20.53;76.92
68257;DHT22;55069;51.568;4.656;2023-10-09T15:55:00;20.53;77.44
68257;DHT22;55069;51.568;4.656;2023-10-09T15:57:26;20.33;77.47
68257;DHT22;55069;51.568;4.656;2023-10-09T15:59:52;20.50;77.71
68257;DHT22;55069;51.568;4.656;2023-10-09T16:02:17;20.39;78.14
68257;DHT22;55069;51.568;4.656;2023-10-09T16:04:44;20.42;78.19
68257;DHT22;55069;51.568;4.656;2023-10-09T16:07:10;20.42;78.18
68257;DHT22;55069;51.568;4.656;2023-10-09T16:09:36;20.25;78.56
68257;DHT22;55069;51.568;4.656;2023-10-09T16:12:06;20.12;79.13
68257;DHT22;55069;51.568;4.656;2023-10-09T16:14:31;19.99;78.63
68257;DHT22;55069;51.568;4.656;2023-10-09T16:17:01;19.99;78.41
68257;DHT22;55069;51.568;4.656;2023-10-09T16:19:27;19.98;78.43
68257;DHT22;55069;51.568;4.656;2023-10-09T16:21:58;19.84;78.87
68257;DHT22;55069;51.568;4.656;2023-10-09T16:24:30;19.78;78.74
68257;DHT22;55069;51.568;4.656;2023-10-09T16:26:58;19.71;79.02